Covington, VA

1:46 AM EDT on April 21, 2015 (GMT -0400)
Virginia Tech | | Change Station
CLOSE
Current Station
Airport
Location: Blacksburg,
Elevation: 2133 ft
Nearby Weather Stations

Elev 2133 ft 37.21 °N, 80.41 °W | Updated 11 minutes ago

Mostly Cloudy
Mostly Cloudy
50 °F
Feels Like 50 °F
N
13
Wind Variable Wind from WNW
Gusts 18 mph

Today
High -- | Low -- °F
--% Chance of Precip.
Yesterday
High -- | Low -- °F
Precip. -- in
6:37 AM 8:01 PM
Waxing Crescent, 8% visible
Pressure 29.81 in
Visibility 10.0 miles
Clouds Scattered Clouds 3500 ft
Mostly Cloudy 6000 ft
Overcast 8000 ft
Dew Point 41 °F
Humidity 72%
Rainfall 0.00 in
Snow Depth Not available.
UV 0 out of 12
Pollen 7.10 out of 12
Air Quality Not available.
Flu Activity Local Activity
METAR KBCB 210535Z AUTO 29011G16KT 10SM SCT035 BKN060 OVC080 10/05 A2981 RMK AO2 T01000052

More Conditions Fewer Conditions

Pressure 29.81 in
Visibility 10.0 miles
Clouds Scattered Clouds 3500 ft
Mostly Cloudy 6000 ft
Overcast 8000 ft
Dew Point 41 °F
Humidity 72%
Rainfall 0.00 in
Snow Depth Not available.
UV 0 out of 12
Pollen 7.10 out of 12
Air Quality Not available.
Flu Activity Local Activity
METAR KBCB 210535Z AUTO 29011G16KT 10SM SCT035 BKN060 OVC080 10/05 A2981 RMK AO2 T01000052

More Conditions Fewer Conditions

10-Day Weather Forecast

Almanac

Astronomy

Apr. 21, 2015 Rise Set
Actual Time
Civil Twilight
Nautical Twilight
Astronomical Twilight
Moon
Length of Visible Light
Length of Day
Tomorrow will be .
, % of the Moon is Illuminated

Today's Extremes

State Highs State Lows

Community

WunderPhotos

Upload Photos

1,815,316 photos uploaded!

WunderBlogs® & News

Nearby

Air Quality

  Air Quality AQ Index Pollutant
Not available.

Snow Depth

Station Depth Elevation

Earthquake Activity

City Distance Mag. Time & Date
Minimum magnitude displayed is 2.5.

Coastal Water Temperatures

Place Temperature

Stations

Nearby Weather Stations

Station Location Temp. Windchill Dew Point Humidity Wind Precip. Elev Updated Type